sensor_id;sensor_type;location;lat;lon;timestamp;temperature;humidity
25024;DHT22;13033;50.936;5.334;2022-12-08T00:00:53;6.30;99.90
25024;DHT22;13033;50.936;5.334;2022-12-08T00:03:18;6.10;99.90
25024;DHT22;13033;50.936;5.334;2022-12-08T00:05:48;6.00;99.90
25024;DHT22;13033;50.936;5.334;2022-12-08T00:08:33;5.90;99.90
25024;DHT22;13033;50.936;5.334;2022-12-08T00:11:18;5.80;99.90
25024;DHT22;13033;50.936;5.334;2022-12-08T00:13:44;5.80;99.90
25024;DHT22;13033;50.936;5.334;2022-12-08T00:16:10;5.80;99.90
25024;DHT22;13033;50.936;5.334;2022-12-08T00:18:36;5.90;99.90
25024;DHT22;13033;50.936;5.334;2022-12-08T00:21:02;5.80;99.90
25024;DHT22;13033;50.936;5.334;2022-12-08T00:23:28;5.70;99.90
25024;DHT22;13033;50.936;5.334;2022-12-08T00:25:54;5.60;99.90
25024;DHT22;13033;50.936;5.334;2022-12-08T00:28:19;5.60;99.90
25024;DHT22;13033;50.936;5.334;2022-12-08T00:30:45;5.70;99.90
25024;DHT22;13033;50.936;5.334;2022-12-08T00:33:11;5.80;99.90
25024;DHT22;13033;50.936;5.334;2022-12-08T00:35:37;5.90;99.90
25024;DHT22;13033;50.936;5.334;2022-12-08T00:38:03;5.90;99.90
25024;DHT22;13033;50.936;5.334;2022-12-08T00:40:29;5.90;99.90
25024;DHT22;13033;50.936;5.334;2022-12-08T00:42:55;5.90;99.90
25024;DHT22;13033;50.936;5.334;2022-12-08T00:45:21;6.00;99.90
25024;DHT22;13033;50.936;5.334;2022-12-08T00:47:47;6.00;99.90
25024;DHT22;13033;50.936;5.334;2022-12-08T00:50:12;5.70;99.90
25024;DHT22;13033;50.936;5.334;2022-12-08T00:52:38;5.70;99.90
25024;DHT22;13033;50.936;5.334;2022-12-08T00:55:04;5.80;99.90
25024;DHT22;13033;50.936;5.334;2022-12-08T00:57:30;5.90;99.90
25024;DHT22;13033;50.936;5.334;2022-12-08T00:59:56;6.10;99.90
25024;DHT22;13033;50.936;5.334;2022-12-08T01:02:22;6.10;99.90
25024;DHT22;13033;50.936;5.334;2022-12-08T01:04:48;6.00;99.90
25024;DHT22;13033;50.936;5.334;2022-12-08T01:07:14;6.00;99.90
25024;DHT22;13033;50.936;5.334;2022-12-08T01:09:40;5.90;99.90
25024;DHT22;13033;50.936;5.334;2022-12-08T01:12:06;5.70;99.90
25024;DHT22;13033;50.936;5.334;2022-12-08T01:14:32;5.60;99.90
25024;DHT22;13033;50.936;5.334;2022-12-08T01:16:57;5.50;99.90
25024;DHT22;13033;50.936;5.334;2022-12-08T01:19:23;5.40;99.90
25024;DHT22;13033;50.936;5.334;2022-12-08T01:21:49;5.40;99.90
25024;DHT22;13033;50.936;5.334;2022-12-08T01:24:19;5.30;99.90
25024;DHT22;13033;50.936;5.334;2022-12-08T01:26:45;5.30;99.90
25024;DHT22;13033;50.936;5.334;2022-12-08T01:29:11;5.30;99.90
25024;DHT22;13033;50.936;5.334;2022-12-08T01:31:38;5.30;99.90
25024;DHT22;13033;50.936;5.334;2022-12-08T01:34:04;5.40;99.90
25024;DHT22;13033;50.936;5.334;2022-12-08T01:36:32;5.50;99.90
25024;DHT22;13033;50.936;5.334;2022-12-08T01:39:00;5.40;99.90
25024;DHT22;13033;50.936;5.334;2022-12-08T01:41:28;5.40;99.90
25024;DHT22;13033;50.936;5.334;2022-12-08T01:44:03;5.40;99.90
25024;DHT22;13033;50.936;5.334;2022-12-08T01:46:47;5.30;99.90
25024;DHT22;13033;50.936;5.334;2022-12-08T01:49:29;5.40;99.90
25024;DHT22;13033;50.936;5.334;2022-12-08T01:54:50;5.50;99.90
25024;DHT22;13033;50.936;5.334;2022-12-08T01:57:24;5.40;99.90
25024;DHT22;13033;50.936;5.334;2022-12-08T02:00:13;5.50;99.90
25024;DHT22;13033;50.936;5.334;2022-12-08T02:02:57;5.60;99.90
25024;DHT22;13033;50.936;5.334;2022-12-08T02:05:33;5.60;99.90
25024;DHT22;13033;50.936;5.334;2022-12-08T02:08:00;5.60;99.90
25024;DHT22;13033;50.936;5.334;2022-12-08T02:10:30;5.60;99.90
25024;DHT22;13033;50.936;5.334;2022-12-08T02:12:57;5.50;99.90
25024;DHT22;13033;50.936;5.334;2022-12-08T02:20:40;5.40;99.90
25024;DHT22;13033;50.936;5.334;2022-12-08T02:34:44;5.40;99.90
25024;DHT22;13033;50.936;5.334;2022-12-08T02:37:23;5.40;99.90
25024;DHT22;13033;50.936;5.334;2022-12-08T02:40:33;5.30;99.90
25024;DHT22;13033;50.936;5.334;2022-12-08T02:43:15;5.30;99.90
25024;DHT22;13033;50.936;5.334;2022-12-08T02:45:49;5.30;99.90
25024;DHT22;13033;50.936;5.334;2022-12-08T02:48:17;5.40;99.90
25024;DHT22;13033;50.936;5.334;2022-12-08T02:50:43;5.40;99.90
25024;DHT22;13033;50.936;5.334;2022-12-08T02:53:09;5.50;99.90
25024;DHT22;13033;50.936;5.334;2022-12-08T03:01:18;5.20;99.90
25024;DHT22;13033;50.936;5.334;2022-12-08T03:06:44;5.20;99.90
25024;DHT22;13033;50.936;5.334;2022-12-08T03:10:28;5.10;99.90
25024;DHT22;13033;50.936;5.334;2022-12-08T03:15:05;5.40;99.90
25024;DHT22;13033;50.936;5.334;2022-12-08T03:17:33;5.30;99.90
25024;DHT22;13033;50.936;5.334;2022-12-08T03:20:06;5.30;99.90
25024;DHT22;13033;50.936;5.334;2022-12-08T03:22:32;5.30;99.90
25024;DHT22;13033;50.936;5.334;2022-12-08T03:24:58;5.30;99.90
25024;DHT22;13033;50.936;5.334;2022-12-08T03:27:28;5.30;99.90
25024;DHT22;13033;50.936;5.334;2022-12-08T03:29:58;5.40;99.90
25024;DHT22;13033;50.936;5.334;2022-12-08T03:35:09;5.20;99.90
25024;DHT22;13033;50.936;5.334;2022-12-08T03:37:37;5.00;99.90
25024;DHT22;13033;50.936;5.334;2022-12-08T03:40:06;5.00;99.90
25024;DHT22;13033;50.936;5.334;2022-12-08T03:42:32;5.10;99.90
25024;DHT22;13033;50.936;5.334;2022-12-08T03:44:57;5.20;99.90
25024;DHT22;13033;50.936;5.334;2022-12-08T03:47:23;5.10;99.90
25024;DHT22;13033;50.936;5.334;2022-12-08T03:49:57;5.00;99.90
25024;DHT22;13033;50.936;5.334;2022-12-08T03:52:22;4.90;99.90
25024;DHT22;13033;50.936;5.334;2022-12-08T03:54:48;4.90;99.90
25024;DHT22;13033;50.936;5.334;2022-12-08T03:57:14;4.80;99.90
25024;DHT22;13033;50.936;5.334;2022-12-08T03:59:39;5.00;99.90
25024;DHT22;13033;50.936;5.334;2022-12-08T04:02:05;5.10;99.90
25024;DHT22;13033;50.936;5.334;2022-12-08T04:04:30;5.00;99.90
25024;DHT22;13033;50.936;5.334;2022-12-08T04:06:56;4.90;99.90
25024;DHT22;13033;50.936;5.334;2022-12-08T04:09:22;4.90;99.90
25024;DHT22;13033;50.936;5.334;2022-12-08T04:11:48;4.90;99.90
25024;DHT22;13033;50.936;5.334;2022-12-08T04:14:13;4.90;99.90
25024;DHT22;13033;50.936;5.334;2022-12-08T04:16:39;5.00;99.90
25024;DHT22;13033;50.936;5.334;2022-12-08T04:19:05;5.00;99.90
25024;DHT22;13033;50.936;5.334;2022-12-08T04:21:31;4.90;99.90
25024;DHT22;13033;50.936;5.334;2022-12-08T04:23:56;4.80;99.90
25024;DHT22;13033;50.936;5.334;2022-12-08T04:26:22;4.80;99.90
25024;DHT22;13033;50.936;5.334;2022-12-08T04:28:48;4.80;99.90
25024;DHT22;13033;50.936;5.334;2022-12-08T04:31:13;4.90;99.90
25024;DHT22;13033;50.936;5.334;2022-12-08T04:33:39;5.00;99.90
25024;DHT22;13033;50.936;5.334;2022-12-08T04:36:05;5.00;99.90
25024;DHT22;13033;50.936;5.334;2022-12-08T04:38:32;5.00;99.90
25024;DHT22;13033;50.936;5.334;2022-12-08T04:40:58;5.10;99.90
25024;DHT22;13033;50.936;5.334;2022-12-08T04:43:23;5.00;99.90
25024;DHT22;13033;50.936;5.334;2022-12-08T04:45:49;4.90;99.90
25024;DHT22;13033;50.936;5.334;2022-12-08T04:48:15;5.10;99.90
25024;DHT22;13033;50.936;5.334;2022-12-08T04:50:42;5.00;99.90
25024;DHT22;13033;50.936;5.334;2022-12-08T04:53:09;5.00;99.90
25024;DHT22;13033;50.936;5.334;2022-12-08T04:55:41;5.10;99.90
25024;DHT22;13033;50.936;5.334;2022-12-08T04:58:12;5.10;99.90
25024;DHT22;13033;50.936;5.334;2022-12-08T05:00:38;5.20;99.90
25024;DHT22;13033;50.936;5.334;2022-12-08T05:03:04;5.30;99.90
25024;DHT22;13033;50.936;5.334;2022-12-08T05:05:30;5.20;99.90
25024;DHT22;13033;50.936;5.334;2022-12-08T05:07:56;5.20;99.90
25024;DHT22;13033;50.936;5.334;2022-12-08T05:10:21;5.30;99.90
25024;DHT22;13033;50.936;5.334;2022-12-08T05:12:47;5.20;99.90
25024;DHT22;13033;50.936;5.334;2022-12-08T05:15:13;5.20;99.90
25024;DHT22;13033;50.936;5.334;2022-12-08T05:17:38;5.10;99.90
25024;DHT22;13033;50.936;5.334;2022-12-08T05:20:05;5.00;99.90
25024;DHT22;13033;50.936;5.334;2022-12-08T05:22:31;4.90;99.90
25024;DHT22;13033;50.936;5.334;2022-12-08T05:24:56;4.80;99.90
25024;DHT22;13033;50.936;5.334;2022-12-08T05:27:22;4.70;99.90
25024;DHT22;13033;50.936;5.334;2022-12-08T05:29:47;4.60;99.90
25024;DHT22;13033;50.936;5.334;2022-12-08T05:32:15;4.50;99.90
25024;DHT22;13033;50.936;5.334;2022-12-08T05:34:41;4.40;99.90
25024;DHT22;13033;50.936;5.334;2022-12-08T05:37:06;4.40;99.90
25024;DHT22;13033;50.936;5.334;2022-12-08T05:39:32;4.50;99.90
25024;DHT22;13033;50.936;5.334;2022-12-08T05:41:58;4.50;99.90
25024;DHT22;13033;50.936;5.334;2022-12-08T05:44:24;4.70;99.90
25024;DHT22;13033;50.936;5.334;2022-12-08T05:46:50;4.80;99.90
25024;DHT22;13033;50.936;5.334;2022-12-08T05:49:16;4.70;99.90
25024;DHT22;13033;50.936;5.334;2022-12-08T05:51:42;4.80;99.90
25024;DHT22;13033;50.936;5.334;2022-12-08T05:54:08;4.80;99.90
25024;DHT22;13033;50.936;5.334;2022-12-08T05:56:34;4.70;99.90
25024;DHT22;13033;50.936;5.334;2022-12-08T05:58:59;4.80;99.90
25024;DHT22;13033;50.936;5.334;2022-12-08T06:01:27;4.90;99.90
25024;DHT22;13033;50.936;5.334;2022-12-08T06:03:55;4.80;99.90
25024;DHT22;13033;50.936;5.334;2022-12-08T06:06:21;4.80;99.90
25024;DHT22;13033;50.936;5.334;2022-12-08T06:08:47;4.80;99.90
25024;DHT22;13033;50.936;5.334;2022-12-08T06:11:27;4.80;99.90
25024;DHT22;13033;50.936;5.334;2022-12-08T06:13:53;4.80;99.90
25024;DHT22;13033;50.936;5.334;2022-12-08T06:16:20;4.90;99.90
25024;DHT22;13033;50.936;5.334;2022-12-08T06:18:46;4.80;99.90
25024;DHT22;13033;50.936;5.334;2022-12-08T06:21:13;4.90;99.90
25024;DHT22;13033;50.936;5.334;2022-12-08T06:23:39;4.90;99.90
25024;DHT22;13033;50.936;5.334;2022-12-08T06:26:11;5.10;99.90
25024;DHT22;13033;50.936;5.334;2022-12-08T06:28:37;5.00;99.90
25024;DHT22;13033;50.936;5.334;2022-12-08T06:31:08;5.00;99.90
25024;DHT22;13033;50.936;5.334;2022-12-08T06:33:34;4.90;99.90
25024;DHT22;13033;50.936;5.334;2022-12-08T06:35:59;4.90;99.90
25024;DHT22;13033;50.936;5.334;2022-12-08T06:38:25;4.80;99.90
25024;DHT22;13033;50.936;5.334;2022-12-08T06:40:53;4.80;99.90
25024;DHT22;13033;50.936;5.334;2022-12-08T06:43:19;4.90;99.90
25024;DHT22;13033;50.936;5.334;2022-12-08T06:45:45;4.90;99.90
25024;DHT22;13033;50.936;5.334;2022-12-08T06:48:10;4.90;99.90
25024;DHT22;13033;50.936;5.334;2022-12-08T06:50:36;4.90;99.90
25024;DHT22;13033;50.936;5.334;2022-12-08T06:53:02;5.10;99.90
25024;DHT22;13033;50.936;5.334;2022-12-08T06:55:27;5.00;99.90
25024;DHT22;13033;50.936;5.334;2022-12-08T06:57:53;5.00;99.90
25024;DHT22;13033;50.936;5.334;2022-12-08T07:00:19;5.00;99.90
25024;DHT22;13033;50.936;5.334;2022-12-08T07:02:45;4.80;99.90
25024;DHT22;13033;50.936;5.334;2022-12-08T07:05:10;4.90;99.90
25024;DHT22;13033;50.936;5.334;2022-12-08T07:07:36;4.70;99.90
25024;DHT22;13033;50.936;5.334;2022-12-08T07:10:02;4.50;99.90
25024;DHT22;13033;50.936;5.334;2022-12-08T07:12:28;4.60;99.90
25024;DHT22;13033;50.936;5.334;2022-12-08T07:14:53;4.70;99.90
25024;DHT22;13033;50.936;5.334;2022-12-08T07:17:19;4.70;99.90
25024;DHT22;13033;50.936;5.334;2022-12-08T07:19:45;4.80;99.90
25024;DHT22;13033;50.936;5.334;2022-12-08T07:22:10;4.80;99.90
25024;DHT22;13033;50.936;5.334;2022-12-08T07:24:36;4.90;99.90
25024;DHT22;13033;50.936;5.334;2022-12-08T07:27:01;4.80;99.90
25024;DHT22;13033;50.936;5.334;2022-12-08T07:29:27;4.80;99.90
25024;DHT22;13033;50.936;5.334;2022-12-08T07:31:53;4.80;99.90
25024;DHT22;13033;50.936;5.334;2022-12-08T07:34:18;4.80;99.90
25024;DHT22;13033;50.936;5.334;2022-12-08T07:36:44;4.80;99.90
25024;DHT22;13033;50.936;5.334;2022-12-08T07:39:10;4.90;99.90
25024;DHT22;13033;50.936;5.334;2022-12-08T07:41:35;4.90;99.90
25024;DHT22;13033;50.936;5.334;2022-12-08T07:44:01;4.90;99.90
25024;DHT22;13033;50.936;5.334;2022-12-08T07:46:27;4.90;99.90
25024;DHT22;13033;50.936;5.334;2022-12-08T07:48:53;4.80;99.90
25024;DHT22;13033;50.936;5.334;2022-12-08T07:51:19;4.70;99.90
25024;DHT22;13033;50.936;5.334;2022-12-08T07:53:46;4.80;99.90
25024;DHT22;13033;50.936;5.334;2022-12-08T07:56:13;4.70;99.90
25024;DHT22;13033;50.936;5.334;2022-12-08T07:58:39;4.90;99.90
25024;DHT22;13033;50.936;5.334;2022-12-08T08:01:06;4.80;99.90
25024;DHT22;13033;50.936;5.334;2022-12-08T08:03:42;4.90;99.90
25024;DHT22;13033;50.936;5.334;2022-12-08T08:06:07;5.00;99.90
25024;DHT22;13033;50.936;5.334;2022-12-08T08:08:33;5.00;99.90
25024;DHT22;13033;50.936;5.334;2022-12-08T08:10:59;5.00;99.90
25024;DHT22;13033;50.936;5.334;2022-12-08T08:13:24;5.00;99.90
25024;DHT22;13033;50.936;5.334;2022-12-08T08:15:50;5.00;99.90
25024;DHT22;13033;50.936;5.334;2022-12-08T08:18:15;5.00;99.90
25024;DHT22;13033;50.936;5.334;2022-12-08T08:20:41;5.00;99.90
25024;DHT22;13033;50.936;5.334;2022-12-08T08:23:07;5.10;99.90
25024;DHT22;13033;50.936;5.334;2022-12-08T08:25:32;5.00;99.90
25024;DHT22;13033;50.936;5.334;2022-12-08T08:27:58;5.20;99.90
25024;DHT22;13033;50.936;5.334;2022-12-08T08:30:24;5.10;99.90
25024;DHT22;13033;50.936;5.334;2022-12-08T08:32:49;5.00;99.90
25024;DHT22;13033;50.936;5.334;2022-12-08T08:35:15;5.00;99.90
25024;DHT22;13033;50.936;5.334;2022-12-08T08:37:41;5.00;99.90
25024;DHT22;13033;50.936;5.334;2022-12-08T08:40:07;5.10;99.90
25024;DHT22;13033;50.936;5.334;2022-12-08T08:42:33;5.10;99.90
25024;DHT22;13033;50.936;5.334;2022-12-08T08:44:59;5.10;99.90
25024;DHT22;13033;50.936;5.334;2022-12-08T08:47:25;5.20;99.90
25024;DHT22;13033;50.936;5.334;2022-12-08T08:49:50;5.20;99.90
25024;DHT22;13033;50.936;5.334;2022-12-08T08:52:16;5.20;99.90
25024;DHT22;13033;50.936;5.334;2022-12-08T08:54:42;5.10;99.90
25024;DHT22;13033;50.936;5.334;2022-12-08T08:57:08;5.20;99.90
25024;DHT22;13033;50.936;5.334;2022-12-08T08:59:33;5.10;99.90
25024;DHT22;13033;50.936;5.334;2022-12-08T09:01:59;5.00;99.90
25024;DHT22;13033;50.936;5.334;2022-12-08T09:04:25;5.00;99.90
25024;DHT22;13033;50.936;5.334;2022-12-08T09:06:50;5.00;99.90
25024;DHT22;13033;50.936;5.334;2022-12-08T09:09:16;5.10;99.90
25024;DHT22;13033;50.936;5.334;2022-12-08T09:11:42;5.30;99.90
25024;DHT22;13033;50.936;5.334;2022-12-08T09:14:10;5.30;99.90
25024;DHT22;13033;50.936;5.334;2022-12-08T09:16:37;5.30;99.90
25024;DHT22;13033;50.936;5.334;2022-12-08T09:19:02;5.30;99.90
25024;DHT22;13033;50.936;5.334;2022-12-08T09:21:28;5.50;99.90
25024;DHT22;13033;50.936;5.334;2022-12-08T09:23:56;5.60;99.90
25024;DHT22;13033;50.936;5.334;2022-12-08T09:26:22;5.70;99.90
25024;DHT22;13033;50.936;5.334;2022-12-08T09:28:50;5.70;99.90
25024;DHT22;13033;50.936;5.334;2022-12-08T09:31:16;5.60;99.90
25024;DHT22;13033;50.936;5.334;2022-12-08T09:33:42;5.60;99.90
25024;DHT22;13033;50.936;5.334;2022-12-08T09:36:09;5.60;99.90
25024;DHT22;13033;50.936;5.334;2022-12-08T09:38:35;5.60;99.90
25024;DHT22;13033;50.936;5.334;2022-12-08T09:41:03;5.70;99.90
25024;DHT22;13033;50.936;5.334;2022-12-08T09:43:56;5.60;99.90
25024;DHT22;13033;50.936;5.334;2022-12-08T09:46:25;5.70;99.90
25024;DHT22;13033;50.936;5.334;2022-12-08T09:48:56;5.80;99.90
25024;DHT22;13033;50.936;5.334;2022-12-08T09:51:24;5.80;99.90
25024;DHT22;13033;50.936;5.334;2022-12-08T09:53:54;5.80;99.90
25024;DHT22;13033;50.936;5.334;2022-12-08T09:56:23;5.80;99.90
25024;DHT22;13033;50.936;5.334;2022-12-08T09:58:52;5.80;99.90
25024;DHT22;13033;50.936;5.334;2022-12-08T10:01:22;5.80;99.90
25024;DHT22;13033;50.936;5.334;2022-12-08T10:03:51;5.80;99.90
25024;DHT22;13033;50.936;5.334;2022-12-08T10:09:11;5.90;99.90
25024;DHT22;13033;50.936;5.334;2022-12-08T10:14:56;6.00;99.90
25024;DHT22;13033;50.936;5.334;2022-12-08T10:17:26;5.80;99.90
25024;DHT22;13033;50.936;5.334;2022-12-08T10:20:23;5.90;99.90
25024;DHT22;13033;50.936;5.334;2022-12-08T10:22:57;5.80;99.90
25024;DHT22;13033;50.936;5.334;2022-12-08T10:25:32;5.90;99.90
25024;DHT22;13033;50.936;5.334;2022-12-08T10:28:00;5.90;99.90
25024;DHT22;13033;50.936;5.334;2022-12-08T10:30:25;5.70;99.90
25024;DHT22;13033;50.936;5.334;2022-12-08T10:32:53;5.60;99.90
25024;DHT22;13033;50.936;5.334;2022-12-08T10:35:21;5.70;99.90
25024;DHT22;13033;50.936;5.334;2022-12-08T10:37:59;5.60;99.90
25024;DHT22;13033;50.936;5.334;2022-12-08T10:40:33;5.60;99.90
25024;DHT22;13033;50.936;5.334;2022-12-08T10:42:59;5.70;99.90
25024;DHT22;13033;50.936;5.334;2022-12-08T10:45:36;5.70;99.90
25024;DHT22;13033;50.936;5.334;2022-12-08T10:48:08;5.60;99.90
25024;DHT22;13033;50.936;5.334;2022-12-08T10:53:23;5.60;99.90
25024;DHT22;13033;50.936;5.334;2022-12-08T10:58:32;5.60;99.90
25024;DHT22;13033;50.936;5.334;2022-12-08T11:06:30;5.80;99.90
25024;DHT22;13033;50.936;5.334;2022-12-08T11:09:04;5.80;99.90
25024;DHT22;13033;50.936;5.334;2022-12-08T11:11:56;5.70;99.90
25024;DHT22;13033;50.936;5.334;2022-12-08T11:14:31;5.70;99.90
25024;DHT22;13033;50.936;5.334;2022-12-08T11:17:07;5.70;99.90
25024;DHT22;13033;50.936;5.334;2022-12-08T11:19:42;5.70;99.90
25024;DHT22;13033;50.936;5.334;2022-12-08T11:25:26;5.90;99.90
25024;DHT22;13033;50.936;5.334;2022-12-08T11:27:57;5.90;99.90
25024;DHT22;13033;50.936;5.334;2022-12-08T11:30:33;5.90;99.90
25024;DHT22;13033;50.936;5.334;2022-12-08T11:35:49;6.10;99.90
25024;DHT22;13033;50.936;5.334;2022-12-08T11:38:18;6.00;99.90
25024;DHT22;13033;50.936;5.334;2022-12-08T11:41:03;6.00;99.90
25024;DHT22;13033;50.936;5.334;2022-12-08T11:43:35;6.00;99.90
25024;DHT22;13033;50.936;5.334;2022-12-08T11:46:48;6.20;99.90
25024;DHT22;13033;50.936;5.334;2022-12-08T11:49:15;6.30;99.90
25024;DHT22;13033;50.936;5.334;2022-12-08T11:51:55;6.20;99.90
25024;DHT22;13033;50.936;5.334;2022-12-08T11:54:29;6.00;99.90
25024;DHT22;13033;50.936;5.334;2022-12-08T12:01:53;6.00;99.90
25024;DHT22;13033;50.936;5.334;2022-12-08T12:04:32;6.00;99.90
25024;DHT22;13033;50.936;5.334;2022-12-08T12:10:09;5.80;99.90
25024;DHT22;13033;50.936;5.334;2022-12-08T12:15:50;6.20;99.90
25024;DHT22;13033;50.936;5.334;2022-12-08T12:21:08;6.80;99.90
25024;DHT22;13033;50.936;5.334;2022-12-08T12:26:05;6.80;99.90
25024;DHT22;13033;50.936;5.334;2022-12-08T12:28:43;6.80;99.90
25024;DHT22;13033;50.936;5.334;2022-12-08T12:31:16;6.80;99.90
25024;DHT22;13033;50.936;5.334;2022-12-08T12:33:45;6.60;99.90
25024;DHT22;13033;50.936;5.334;2022-12-08T12:36:12;6.50;99.90
25024;DHT22;13033;50.936;5.334;2022-12-08T12:38:46;6.40;99.90
25024;DHT22;13033;50.936;5.334;2022-12-08T12:41:34;6.40;99.90
25024;DHT22;13033;50.936;5.334;2022-12-08T12:49:47;6.50;99.90
25024;DHT22;13033;50.936;5.334;2022-12-08T12:57:20;6.60;99.90
25024;DHT22;13033;50.936;5.334;2022-12-08T13:00:08;6.70;99.90
25024;DHT22;13033;50.936;5.334;2022-12-08T13:02:47;6.80;99.90
25024;DHT22;13033;50.936;5.334;2022-12-08T13:05:26;6.90;99.90
25024;DHT22;13033;50.936;5.334;2022-12-08T13:08:05;7.00;99.90
25024;DHT22;13033;50.936;5.334;2022-12-08T13:10:33;6.80;99.90
25024;DHT22;13033;50.936;5.334;2022-12-08T13:15:47;6.70;99.90
25024;DHT22;13033;50.936;5.334;2022-12-08T13:18:28;6.70;99.90
25024;DHT22;13033;50.936;5.334;2022-12-08T13:21:19;6.70;99.90
25024;DHT22;13033;50.936;5.334;2022-12-08T13:26:32;6.70;99.90
25024;DHT22;13033;50.936;5.334;2022-12-08T13:29:15;6.80;99.90
25024;DHT22;13033;50.936;5.334;2022-12-08T13:34:47;7.10;99.90
25024;DHT22;13033;50.936;5.334;2022-12-08T13:40:44;7.00;99.90
25024;DHT22;13033;50.936;5.334;2022-12-08T13:43:17;7.00;99.90
25024;DHT22;13033;50.936;5.334;2022-12-08T13:45:46;6.80;99.90
25024;DHT22;13033;50.936;5.334;2022-12-08T13:51:50;6.60;99.90
25024;DHT22;13033;50.936;5.334;2022-12-08T13:54:23;6.60;99.90
25024;DHT22;13033;50.936;5.334;2022-12-08T13:56:50;6.60;99.90
25024;DHT22;13033;50.936;5.334;2022-12-08T14:01:47;6.30;99.90
25024;DHT22;13033;50.936;5.334;2022-12-08T14:04:17;6.40;99.90
25024;DHT22;13033;50.936;5.334;2022-12-08T14:06:46;6.60;99.90
25024;DHT22;13033;50.936;5.334;2022-12-08T14:09:25;6.40;99.90
25024;DHT22;13033;50.936;5.334;2022-12-08T14:11:54;6.40;99.90
25024;DHT22;13033;50.936;5.334;2022-12-08T14:14:32;6.60;99.90
25024;DHT22;13033;50.936;5.334;2022-12-08T14:17:13;6.90;99.90
25024;DHT22;13033;50.936;5.334;2022-12-08T14:19:42;6.80;99.90
25024;DHT22;13033;50.936;5.334;2022-12-08T14:22:16;6.70;99.90
25024;DHT22;13033;50.936;5.334;2022-12-08T14:25:00;6.60;99.90
25024;DHT22;13033;50.936;5.334;2022-12-08T14:27:27;6.60;99.90
25024;DHT22;13033;50.936;5.334;2022-12-08T14:29:58;6.70;99.90
25024;DHT22;13033;50.936;5.334;2022-12-08T14:35:10;6.70;99.90
25024;DHT22;13033;50.936;5.334;2022-12-08T14:37:45;6.70;99.90
25024;DHT22;13033;50.936;5.334;2022-12-08T14:42:46;6.40;99.90
25024;DHT22;13033;50.936;5.334;2022-12-08T14:45:14;6.60;99.90
25024;DHT22;13033;50.936;5.334;2022-12-08T14:47:41;6.40;99.90
25024;DHT22;13033;50.936;5.334;2022-12-08T14:50:36;6.50;99.90
25024;DHT22;13033;50.936;5.334;2022-12-08T14:53:02;6.60;99.90
25024;DHT22;13033;50.936;5.334;2022-12-08T14:55:35;6.60;99.90
25024;DHT22;13033;50.936;5.334;2022-12-08T14:58:01;6.30;99.90
25024;DHT22;13033;50.936;5.334;2022-12-08T15:00:27;6.40;99.90
25024;DHT22;13033;50.936;5.334;2022-12-08T15:02:55;6.40;99.90
25024;DHT22;13033;50.936;5.334;2022-12-08T15:05:31;6.30;99.90
25024;DHT22;13033;50.936;5.334;2022-12-08T15:08:01;6.20;99.90
25024;DHT22;13033;50.936;5.334;2022-12-08T15:10:30;6.10;99.90
25024;DHT22;13033;50.936;5.334;2022-12-08T15:13:20;6.10;99.90
25024;DHT22;13033;50.936;5.334;2022-12-08T15:15:48;6.20;99.90
25024;DHT22;13033;50.936;5.334;2022-12-08T15:18:17;6.30;99.90
25024;DHT22;13033;50.936;5.334;2022-12-08T15:25:50;6.00;99.90
25024;DHT22;13033;50.936;5.334;2022-12-08T15:28:21;6.00;99.90
25024;DHT22;13033;50.936;5.334;2022-12-08T15:30:48;6.10;99.90
25024;DHT22;13033;50.936;5.334;2022-12-08T15:33:13;6.20;99.90
25024;DHT22;13033;50.936;5.334;2022-12-08T15:35:39;6.10;99.90
25024;DHT22;13033;50.936;5.334;2022-12-08T15:38:06;6.20;99.90
25024;DHT22;13033;50.936;5.334;2022-12-08T15:40:32;6.40;99.90
25024;DHT22;13033;50.936;5.334;2022-12-08T15:42:57;6.10;99.90
25024;DHT22;13033;50.936;5.334;2022-12-08T15:45:29;5.80;99.90
25024;DHT22;13033;50.936;5.334;2022-12-08T15:47:55;5.50;99.90
25024;DHT22;13033;50.936;5.334;2022-12-08T15:50:22;5.30;99.90
25024;DHT22;13033;50.936;5.334;2022-12-08T15:52:49;5.10;99.90
25024;DHT22;13033;50.936;5.334;2022-12-08T15:55:19;5.00;99.90
25024;DHT22;13033;50.936;5.334;2022-12-08T15:57:50;5.00;99.90
25024;DHT22;13033;50.936;5.334;2022-12-08T16:00:27;5.10;99.90
25024;DHT22;13033;50.936;5.334;2022-12-08T16:02:54;5.20;99.90
25024;DHT22;13033;50.936;5.334;2022-12-08T16:05:23;5.30;99.90
25024;DHT22;13033;50.936;5.334;2022-12-08T16:07:50;5.20;99.90
25024;DHT22;13033;50.936;5.334;2022-12-08T16:10:18;5.10;99.90
25024;DHT22;13033;50.936;5.334;2022-12-08T16:12:45;5.20;99.90
25024;DHT22;13033;50.936;5.334;2022-12-08T16:15:30;5.20;99.90
25024;DHT22;13033;50.936;5.334;2022-12-08T16:17:57;5.20;99.90
25024;DHT22;13033;50.936;5.334;2022-12-08T16:20:23;5.20;99.90
25024;DHT22;13033;50.936;5.334;2022-12-08T16:22:49;5.10;99.90
25024;DHT22;13033;50.936;5.334;2022-12-08T16:25:15;5.30;99.90
25024;DHT22;13033;50.936;5.334;2022-12-08T16:27:41;5.20;99.90
25024;DHT22;13033;50.936;5.334;2022-12-08T16:30:12;5.30;99.90
25024;DHT22;13033;50.936;5.334;2022-12-08T16:32:38;5.20;99.90
25024;DHT22;13033;50.936;5.334;2022-12-08T16:35:04;5.30;99.90
25024;DHT22;13033;50.936;5.334;2022-12-08T16:37:30;5.30;99.90
25024;DHT22;13033;50.936;5.334;2022-12-08T16:39:57;5.10;99.90
25024;DHT22;13033;50.936;5.334;2022-12-08T16:42:25;5.10;99.90
25024;DHT22;13033;50.936;5.334;2022-12-08T16:45:06;5.10;99.90
25024;DHT22;13033;50.936;5.334;2022-12-08T16:47:33;5.10;99.90
25024;DHT22;13033;50.936;5.334;2022-12-08T16:49:59;5.10;99.90
25024;DHT22;13033;50.936;5.334;2022-12-08T16:52:24;5.10;99.90
25024;DHT22;13033;50.936;5.334;2022-12-08T16:54:50;5.10;99.90
25024;DHT22;13033;50.936;5.334;2022-12-08T16:57:16;5.10;99.90
25024;DHT22;13033;50.936;5.334;2022-12-08T16:59:41;5.00;99.90
25024;DHT22;13033;50.936;5.334;2022-12-08T17:02:08;5.20;99.90
25024;DHT22;13033;50.936;5.334;2022-12-08T17:04:34;5.10;99.90
25024;DHT22;13033;50.936;5.334;2022-12-08T17:07:00;5.30;99.90
25024;DHT22;13033;50.936;5.334;2022-12-08T17:09:25;5.30;99.90
25024;DHT22;13033;50.936;5.334;2022-12-08T17:11:52;5.30;99.90
25024;DHT22;13033;50.936;5.334;2022-12-08T17:14:18;5.10;99.90
25024;DHT22;13033;50.936;5.334;2022-12-08T17:16:44;5.50;99.90
25024;DHT22;13033;50.936;5.334;2022-12-08T17:19:12;5.40;99.90
25024;DHT22;13033;50.936;5.334;2022-12-08T17:21:39;5.40;99.90
25024;DHT22;13033;50.936;5.334;2022-12-08T17:24:05;5.10;99.90
25024;DHT22;13033;50.936;5.334;2022-12-08T17:26:31;5.00;99.90
25024;DHT22;13033;50.936;5.334;2022-12-08T17:28:57;4.90;99.90
25024;DHT22;13033;50.936;5.334;2022-12-08T17:31:23;4.90;99.90
25024;DHT22;13033;50.936;5.334;2022-12-08T17:33:48;4.90;99.90
25024;DHT22;13033;50.936;5.334;2022-12-08T17:36:15;4.80;99.90
25024;DHT22;13033;50.936;5.334;2022-12-08T17:38:41;4.70;99.90
25024;DHT22;13033;50.936;5.334;2022-12-08T17:41:08;4.70;99.90
25024;DHT22;13033;50.936;5.334;2022-12-08T17:43:35;4.80;99.90
25024;DHT22;13033;50.936;5.334;2022-12-08T17:46:01;4.70;99.90
25024;DHT22;13033;50.936;5.334;2022-12-08T17:48:27;4.80;99.90